sensor_id;sensor_type;location;lat;lon;timestamp;pressure;altitude;pressure_sealevel;temperature;humidity
76627;BME280;65519;53.230;10.390;2023-01-30T00:01:40;100712.09;;;2.57;87.98
76627;BME280;65519;53.230;10.390;2023-01-30T00:04:06;100702.09;;;2.64;87.04
76627;BME280;65519;53.230;10.390;2023-01-30T00:06:32;100699.25;;;2.59;87.00
76627;BME280;65519;53.230;10.390;2023-01-30T00:08:57;100697.75;;;2.63;87.05
76627;BME280;65519;53.230;10.390;2023-01-30T00:11:23;100717.56;;;2.75;86.69
76627;BME280;65519;53.230;10.390;2023-01-30T00:13:49;100705.75;;;2.76;86.77
76627;BME280;65519;53.230;10.390;2023-01-30T00:16:16;100707.00;;;2.80;86.91
76627;BME280;65519;53.230;10.390;2023-01-30T00:18:42;100702.84;;;2.78;86.34
76627;BME280;65519;53.230;10.390;2023-01-30T00:21:10;100692.03;;;2.84;86.71
76627;BME280;65519;53.230;10.390;2023-01-30T00:23:36;100687.25;;;2.86;86.67
76627;BME280;65519;53.230;10.390;2023-01-30T00:26:03;100693.66;;;2.92;86.43
76627;BME280;65519;53.230;10.390;2023-01-30T00:28:28;100671.44;;;2.97;86.00
76627;BME280;65519;53.230;10.390;2023-01-30T00:30:54;100652.97;;;3.00;86.42
76627;BME280;65519;53.230;10.390;2023-01-30T00:33:22;100643.69;;;2.96;86.42
76627;BME280;65519;53.230;10.390;2023-01-30T00:35:49;100644.28;;;2.98;86.71
76627;BME280;65519;53.230;10.390;2023-01-30T00:38:16;100634.97;;;3.01;86.79
76627;BME280;65519;53.230;10.390;2023-01-30T00:40:42;100615.50;;;2.99;86.32
76627;BME280;65519;53.230;10.390;2023-01-30T00:43:12;100611.97;;;2.98;86.84
76627;BME280;65519;53.230;10.390;2023-01-30T00:45:57;100609.06;;;3.00;86.65
76627;BME280;65519;53.230;10.390;2023-01-30T00:48:40;100593.34;;;2.97;86.51
76627;BME280;65519;53.230;10.390;2023-01-30T00:51:06;100596.56;;;3.05;86.67
76627;BME280;65519;53.230;10.390;2023-01-30T00:53:31;100592.22;;;3.04;86.55
76627;BME280;65519;53.230;10.390;2023-01-30T00:55:57;100589.94;;;3.08;86.59
76627;BME280;65519;53.230;10.390;2023-01-30T00:58:22;100599.22;;;3.12;86.30
76627;BME280;65519;53.230;10.390;2023-01-30T01:00:49;100574.97;;;3.12;86.79
76627;BME280;65519;53.230;10.390;2023-01-30T01:03:15;100580.38;;;3.12;87.02
76627;BME280;65519;53.230;10.390;2023-01-30T01:05:41;100559.88;;;3.11;86.76
76627;BME280;65519;53.230;10.390;2023-01-30T01:08:07;100560.00;;;3.16;87.36
76627;BME280;65519;53.230;10.390;2023-01-30T01:10:33;100560.47;;;3.13;86.73
76627;BME280;65519;53.230;10.390;2023-01-30T01:12:59;100543.09;;;3.09;87.33
76627;BME280;65519;53.230;10.390;2023-01-30T01:15:24;100516.59;;;3.06;87.09
76627;BME280;65519;53.230;10.390;2023-01-30T01:17:50;100532.84;;;3.17;87.39
76627;BME280;65519;53.230;10.390;2023-01-30T01:20:17;100539.88;;;3.18;87.10
76627;BME280;65519;53.230;10.390;2023-01-30T01:22:43;100527.84;;;3.21;87.53
76627;BME280;65519;53.230;10.390;2023-01-30T01:25:09;100541.91;;;3.23;87.20
76627;BME280;65519;53.230;10.390;2023-01-30T01:27:36;100533.38;;;3.26;87.38
76627;BME280;65519;53.230;10.390;2023-01-30T01:30:02;100522.84;;;3.24;86.79
76627;BME280;65519;53.230;10.390;2023-01-30T01:32:27;100516.75;;;3.29;87.08
76627;BME280;65519;53.230;10.390;2023-01-30T01:34:53;100505.03;;;3.23;87.03
76627;BME280;65519;53.230;10.390;2023-01-30T01:37:18;100523.72;;;3.37;86.67
76627;BME280;65519;53.230;10.390;2023-01-30T01:39:44;100518.91;;;3.39;87.00
76627;BME280;65519;53.230;10.390;2023-01-30T01:42:33;100505.66;;;3.37;86.98
76627;BME280;65519;53.230;10.390;2023-01-30T01:45:03;100508.53;;;3.42;86.67
76627;BME280;65519;53.230;10.390;2023-01-30T01:48:08;100496.91;;;3.42;86.56
76627;BME280;65519;53.230;10.390;2023-01-30T01:50:43;100478.88;;;3.42;86.92
76627;BME280;65519;53.230;10.390;2023-01-30T01:53:12;100496.31;;;3.40;87.30
76627;BME280;65519;53.230;10.390;2023-01-30T01:55:40;100492.72;;;3.46;87.57
76627;BME280;65519;53.230;10.390;2023-01-30T01:58:17;100472.16;;;3.33;87.98
76627;BME280;65519;53.230;10.390;2023-01-30T02:00:44;100480.16;;;3.40;87.97
76627;BME280;65519;53.230;10.390;2023-01-30T02:03:14;100463.53;;;3.43;88.43
76627;BME280;65519;53.230;10.390;2023-01-30T02:05:45;100464.97;;;3.45;88.43
76627;BME280;65519;53.230;10.390;2023-01-30T02:08:18;100458.97;;;3.43;88.92
76627;BME280;65519;53.230;10.390;2023-01-30T02:13:30;100446.56;;;3.42;88.62
76627;BME280;65519;53.230;10.390;2023-01-30T02:15:57;100424.00;;;3.37;89.27
76627;BME280;65519;53.230;10.390;2023-01-30T02:18:24;100436.94;;;3.46;89.06
76627;BME280;65519;53.230;10.390;2023-01-30T02:45:39;100410.19;;;3.63;90.66
76627;BME280;65519;53.230;10.390;2023-01-30T02:48:11;100407.59;;;3.68;90.28
76627;BME280;65519;53.230;10.390;2023-01-30T02:50:51;100388.16;;;3.66;90.64
76627;BME280;65519;53.230;10.390;2023-01-30T02:53:19;100402.81;;;3.70;89.93
76627;BME280;65519;53.230;10.390;2023-01-30T02:55:44;100388.28;;;3.71;90.30
76627;BME280;65519;53.230;10.390;2023-01-30T02:58:10;100381.47;;;3.68;90.48
76627;BME280;65519;53.230;10.390;2023-01-30T03:11:28;100358.53;;;3.78;90.53
76627;BME280;65519;53.230;10.390;2023-01-30T03:16:25;100359.22;;;3.85;90.41
76627;BME280;65519;53.230;10.390;2023-01-30T03:18:52;100357.00;;;3.82;90.59
76627;BME280;65519;53.230;10.390;2023-01-30T03:21:18;100351.16;;;3.85;90.55
76627;BME280;65519;53.230;10.390;2023-01-30T03:23:44;100356.06;;;3.88;90.55
76627;BME280;65519;53.230;10.390;2023-01-30T03:26:16;100344.25;;;3.89;90.71
76627;BME280;65519;53.230;10.390;2023-01-30T03:28:42;100354.53;;;3.92;90.34
76627;BME280;65519;53.230;10.390;2023-01-30T03:31:09;100340.00;;;3.93;90.64
76627;BME280;65519;53.230;10.390;2023-01-30T03:33:34;100337.53;;;3.91;91.20
76627;BME280;65519;53.230;10.390;2023-01-30T03:35:59;100341.78;;;3.99;90.33
76627;BME280;65519;53.230;10.390;2023-01-30T03:38:25;100332.38;;;4.01;90.82
76627;BME280;65519;53.230;10.390;2023-01-30T03:40:50;100324.06;;;4.03;90.59
76627;BME280;65519;53.230;10.390;2023-01-30T03:43:16;100321.94;;;4.05;90.44
76627;BME280;65519;53.230;10.390;2023-01-30T03:45:41;100313.41;;;4.08;90.42
76627;BME280;65519;53.230;10.390;2023-01-30T03:48:06;100319.84;;;4.07;90.56
76627;BME280;65519;53.230;10.390;2023-01-30T03:50:32;100317.16;;;4.07;90.67
76627;BME280;65519;53.230;10.390;2023-01-30T03:52:57;100320.22;;;4.11;90.86
76627;BME280;65519;53.230;10.390;2023-01-30T03:55:23;100321.25;;;4.10;91.36
76627;BME280;65519;53.230;10.390;2023-01-30T03:57:48;100309.66;;;4.09;91.25
76627;BME280;65519;53.230;10.390;2023-01-30T04:00:14;100315.13;;;4.14;91.18
76627;BME280;65519;53.230;10.390;2023-01-30T04:02:39;100316.31;;;4.18;90.93
76627;BME280;65519;53.230;10.390;2023-01-30T04:05:05;100305.53;;;4.18;91.82
76627;BME280;65519;53.230;10.390;2023-01-30T04:07:30;100296.84;;;4.16;91.19
76627;BME280;65519;53.230;10.390;2023-01-30T04:09:56;100281.94;;;4.25;90.49
76627;BME280;65519;53.230;10.390;2023-01-30T04:12:21;100270.00;;;4.21;90.96
76627;BME280;65519;53.230;10.390;2023-01-30T04:14:46;100256.50;;;4.21;91.12
76627;BME280;65519;53.230;10.390;2023-01-30T04:17:12;100260.25;;;4.20;91.10
76627;BME280;65519;53.230;10.390;2023-01-30T04:19:37;100258.22;;;4.27;90.94
76627;BME280;65519;53.230;10.390;2023-01-30T04:22:02;100242.88;;;4.28;90.83
76627;BME280;65519;53.230;10.390;2023-01-30T04:24:28;100247.66;;;4.37;90.81
76627;BME280;65519;53.230;10.390;2023-01-30T04:26:53;100255.75;;;4.37;90.99
76627;BME280;65519;53.230;10.390;2023-01-30T04:29:18;100260.44;;;4.42;91.08
76627;BME280;65519;53.230;10.390;2023-01-30T04:31:44;100254.06;;;4.48;90.78
76627;BME280;65519;53.230;10.390;2023-01-30T04:34:09;100248.44;;;4.50;90.80
76627;BME280;65519;53.230;10.390;2023-01-30T04:36:35;100245.34;;;4.58;90.70
76627;BME280;65519;53.230;10.390;2023-01-30T04:39:01;100237.47;;;4.56;90.85
76627;BME280;65519;53.230;10.390;2023-01-30T04:41:27;100235.38;;;4.58;90.58
76627;BME280;65519;53.230;10.390;2023-01-30T04:43:52;100252.75;;;4.62;90.54
76627;BME280;65519;53.230;10.390;2023-01-30T04:46:17;100237.34;;;4.63;90.49
76627;BME280;65519;53.230;10.390;2023-01-30T04:48:43;100241.44;;;4.65;90.62
76627;BME280;65519;53.230;10.390;2023-01-30T04:51:08;100241.31;;;4.72;90.03
76627;BME280;65519;53.230;10.390;2023-01-30T04:53:34;100242.94;;;4.73;90.29
76627;BME280;65519;53.230;10.390;2023-01-30T04:55:59;100238.69;;;4.77;89.81
76627;BME280;65519;53.230;10.390;2023-01-30T04:58:24;100230.34;;;4.78;90.36
76627;BME280;65519;53.230;10.390;2023-01-30T05:00:50;100230.59;;;4.77;90.20
76627;BME280;65519;53.230;10.390;2023-01-30T05:03:15;100232.22;;;4.78;90.30
76627;BME280;65519;53.230;10.390;2023-01-30T05:05:41;100233.97;;;4.84;89.75
76627;BME280;65519;53.230;10.390;2023-01-30T05:08:06;100235.94;;;4.89;89.93
76627;BME280;65519;53.230;10.390;2023-01-30T05:10:32;100234.63;;;4.91;89.29
76627;BME280;65519;53.230;10.390;2023-01-30T05:13:02;100249.31;;;4.95;89.43
76627;BME280;65519;53.230;10.390;2023-01-30T05:15:28;100244.38;;;4.92;89.20
76627;BME280;65519;53.230;10.390;2023-01-30T05:17:53;100234.41;;;4.93;89.54
76627;BME280;65519;53.230;10.390;2023-01-30T05:20:19;100222.66;;;4.87;89.98
76627;BME280;65519;53.230;10.390;2023-01-30T05:22:44;100229.72;;;4.88;88.89
76627;BME280;65519;53.230;10.390;2023-01-30T05:25:10;100223.25;;;4.89;89.10
76627;BME280;65519;53.230;10.390;2023-01-30T05:27:35;100223.00;;;4.91;89.20
76627;BME280;65519;53.230;10.390;2023-01-30T05:30:00;100215.16;;;4.89;89.29
76627;BME280;65519;53.230;10.390;2023-01-30T05:32:26;100215.16;;;4.89;88.92
76627;BME280;65519;53.230;10.390;2023-01-30T05:34:54;100222.13;;;4.85;89.28
76627;BME280;65519;53.230;10.390;2023-01-30T05:37:19;100225.28;;;4.82;89.12
76627;BME280;65519;53.230;10.390;2023-01-30T05:39:46;100230.91;;;5.26;89.65
76627;BME280;65519;53.230;10.390;2023-01-30T05:42:11;100227.75;;;5.00;88.36
76627;BME280;65519;53.230;10.390;2023-01-30T05:44:36;100238.44;;;5.07;87.45
76627;BME280;65519;53.230;10.390;2023-01-30T05:47:02;100231.81;;;5.14;87.06
76627;BME280;65519;53.230;10.390;2023-01-30T05:49:27;100231.88;;;5.20;86.79
76627;BME280;65519;53.230;10.390;2023-01-30T05:51:53;100228.28;;;5.14;86.77
76627;BME280;65519;53.230;10.390;2023-01-30T05:54:18;100222.47;;;5.05;86.53
76627;BME280;65519;53.230;10.390;2023-01-30T05:56:47;100223.34;;;4.94;86.93
76627;BME280;65519;53.230;10.390;2023-01-30T05:59:13;100233.47;;;4.87;87.21
76627;BME280;65519;53.230;10.390;2023-01-30T06:01:39;100224.13;;;4.78;87.27
76627;BME280;65519;53.230;10.390;2023-01-30T06:04:04;100239.13;;;4.86;87.26
76627;BME280;65519;53.230;10.390;2023-01-30T06:06:30;100221.19;;;4.80;87.31
76627;BME280;65519;53.230;10.390;2023-01-30T06:08:56;100218.66;;;4.73;87.25
76627;BME280;65519;53.230;10.390;2023-01-30T06:11:22;100230.50;;;4.72;86.96
76627;BME280;65519;53.230;10.390;2023-01-30T06:13:48;100223.00;;;4.74;86.94
76627;BME280;65519;53.230;10.390;2023-01-30T06:16:15;100219.91;;;4.54;87.31
76627;BME280;65519;53.230;10.390;2023-01-30T06:18:41;100205.34;;;4.55;87.04
76627;BME280;65519;53.230;10.390;2023-01-30T06:21:07;100217.22;;;4.54;87.01
76627;BME280;65519;53.230;10.390;2023-01-30T06:23:32;100224.22;;;4.55;86.95
76627;BME280;65519;53.230;10.390;2023-01-30T06:25:58;100233.06;;;4.50;87.75
76627;BME280;65519;53.230;10.390;2023-01-30T06:28:24;100236.69;;;4.44;87.72
76627;BME280;65519;53.230;10.390;2023-01-30T06:30:50;100238.25;;;4.40;87.30
76627;BME280;65519;53.230;10.390;2023-01-30T06:33:16;100233.34;;;4.37;87.51
76627;BME280;65519;53.230;10.390;2023-01-30T06:35:41;100235.13;;;4.31;87.41
76627;BME280;65519;53.230;10.390;2023-01-30T06:38:08;100223.16;;;4.27;87.38
76627;BME280;65519;53.230;10.390;2023-01-30T06:40:36;100237.91;;;4.36;86.87
76627;BME280;65519;53.230;10.390;2023-01-30T06:43:01;100240.03;;;4.34;87.49
76627;BME280;65519;53.230;10.390;2023-01-30T06:45:26;100242.16;;;4.32;86.89
76627;BME280;65519;53.230;10.390;2023-01-30T06:47:53;100248.84;;;4.30;87.49
76627;BME280;65519;53.230;10.390;2023-01-30T06:50:21;100243.22;;;4.31;86.72
76627;BME280;65519;53.230;10.390;2023-01-30T06:52:49;100258.81;;;4.29;87.00
76627;BME280;65519;53.230;10.390;2023-01-30T06:55:16;100239.34;;;4.27;86.76
76627;BME280;65519;53.230;10.390;2023-01-30T06:57:43;100248.84;;;4.30;86.72
76627;BME280;65519;53.230;10.390;2023-01-30T07:00:12;100261.53;;;4.29;86.78
76627;BME280;65519;53.230;10.390;2023-01-30T07:02:38;100255.88;;;4.31;86.17
76627;BME280;65519;53.230;10.390;2023-01-30T07:05:06;100272.41;;;4.34;86.48
76627;BME280;65519;53.230;10.390;2023-01-30T07:07:32;100267.00;;;4.34;86.46
76627;BME280;65519;53.230;10.390;2023-01-30T07:09:58;100280.72;;;4.33;85.91
76627;BME280;65519;53.230;10.390;2023-01-30T07:12:24;100275.69;;;4.36;84.42
76627;BME280;65519;53.230;10.390;2023-01-30T07:14:51;100280.50;;;4.34;84.53
76627;BME280;65519;53.230;10.390;2023-01-30T07:17:17;100273.56;;;4.38;84.95
76627;BME280;65519;53.230;10.390;2023-01-30T07:19:42;100278.75;;;4.28;84.69
76627;BME280;65519;53.230;10.390;2023-01-30T07:22:08;100280.63;;;4.28;85.08
76627;BME280;65519;53.230;10.390;2023-01-30T07:24:34;100286.72;;;4.23;84.58
76627;BME280;65519;53.230;10.390;2023-01-30T07:27:00;100285.59;;;4.19;84.99
76627;BME280;65519;53.230;10.390;2023-01-30T07:29:25;100284.31;;;4.22;85.08
76627;BME280;65519;53.230;10.390;2023-01-30T07:31:51;100275.63;;;4.20;84.69
76627;BME280;65519;53.230;10.390;2023-01-30T07:34:16;100274.66;;;4.14;84.72
76627;BME280;65519;53.230;10.390;2023-01-30T07:36:42;100280.19;;;4.19;84.82
76627;BME280;65519;53.230;10.390;2023-01-30T07:39:07;100283.72;;;4.20;84.70
76627;BME280;65519;53.230;10.390;2023-01-30T07:41:34;100281.94;;;4.25;84.22
76627;BME280;65519;53.230;10.390;2023-01-30T07:43:59;100277.00;;;4.22;84.48
76627;BME280;65519;53.230;10.390;2023-01-30T07:46:25;100290.38;;;4.29;84.66
76627;BME280;65519;53.230;10.390;2023-01-30T07:48:50;100288.97;;;4.26;84.85
76627;BME280;65519;53.230;10.390;2023-01-30T07:51:15;100286.63;;;4.30;84.07
76627;BME280;65519;53.230;10.390;2023-01-30T07:53:41;100282.38;;;4.34;84.43
76627;BME280;65519;53.230;10.390;2023-01-30T07:56:07;100271.94;;;4.37;84.66
76627;BME280;65519;53.230;10.390;2023-01-30T07:58:32;100258.22;;;4.39;83.83
76627;BME280;65519;53.230;10.390;2023-01-30T08:00:58;100276.63;;;4.42;83.85
76627;BME280;65519;53.230;10.390;2023-01-30T08:03:23;100263.25;;;4.35;84.43
76627;BME280;65519;53.230;10.390;2023-01-30T08:05:48;100286.38;;;4.43;83.98
76627;BME280;65519;53.230;10.390;2023-01-30T08:08:14;100261.34;;;4.48;84.04
76627;BME280;65519;53.230;10.390;2023-01-30T08:10:40;100261.69;;;4.51;83.81
76627;BME280;65519;53.230;10.390;2023-01-30T08:13:05;100260.28;;;4.49;83.82
76627;BME280;65519;53.230;10.390;2023-01-30T08:15:31;100265.81;;;4.54;83.83
76627;BME280;65519;53.230;10.390;2023-01-30T08:17:58;100277.28;;;4.61;83.90
76627;BME280;65519;53.230;10.390;2023-01-30T08:20:25;100267.38;;;4.66;83.72
76627;BME280;65519;53.230;10.390;2023-01-30T08:22:51;100267.38;;;4.66;84.25
76627;BME280;65519;53.230;10.390;2023-01-30T08:25:16;100282.50;;;4.67;84.36
76627;BME280;65519;53.230;10.390;2023-01-30T08:27:42;100284.28;;;4.73;83.63
76627;BME280;65519;53.230;10.390;2023-01-30T08:30:09;100269.94;;;4.73;82.92
76627;BME280;65519;53.230;10.390;2023-01-30T08:32:34;100274.59;;;4.77;83.74
76627;BME280;65519;53.230;10.390;2023-01-30T08:35:00;100275.53;;;4.83;83.43
76627;BME280;65519;53.230;10.390;2023-01-30T08:37:25;100276.13;;;4.85;82.69
76627;BME280;65519;53.230;10.390;2023-01-30T08:39:50;100273.03;;;4.93;82.46
76627;BME280;65519;53.230;10.390;2023-01-30T08:42:19;100292.59;;;5.00;82.46
76627;BME280;65519;53.230;10.390;2023-01-30T08:44:44;100281.31;;;5.03;82.70
76627;BME280;65519;53.230;10.390;2023-01-30T08:47:10;100277.69;;;4.98;82.00
76627;BME280;65519;53.230;10.390;2023-01-30T08:49:35;100282.97;;;5.04;82.39
76627;BME280;65519;53.230;10.390;2023-01-30T08:52:00;100292.78;;;5.10;82.03
76627;BME280;65519;53.230;10.390;2023-01-30T08:54:26;100278.22;;;5.11;81.44
76627;BME280;65519;53.230;10.390;2023-01-30T08:56:51;100266.09;;;4.97;83.52
76627;BME280;65519;53.230;10.390;2023-01-30T08:59:17;100273.84;;;4.94;84.38
76627;BME280;65519;53.230;10.390;2023-01-30T09:01:42;100262.03;;;4.83;84.38
76627;BME280;65519;53.230;10.390;2023-01-30T09:04:07;100266.97;;;4.86;84.39
76627;BME280;65519;53.230;10.390;2023-01-30T09:06:33;100273.91;;;4.82;84.91
76627;BME280;65519;53.230;10.390;2023-01-30T09:08:59;100264.00;;;4.88;84.42
76627;BME280;65519;53.230;10.390;2023-01-30T09:11:24;100286.53;;;4.93;83.29
76627;BME280;65519;53.230;10.390;2023-01-30T09:13:50;100274.97;;;4.98;83.50
76627;BME280;65519;53.230;10.390;2023-01-30T09:16:15;100283.91;;;4.98;82.59
76627;BME280;65519;53.230;10.390;2023-01-30T09:18:42;100277.63;;;5.09;82.15
76627;BME280;65519;53.230;10.390;2023-01-30T09:21:09;100270.69;;;5.13;81.81
76627;BME280;65519;53.230;10.390;2023-01-30T09:23:35;100277.81;;;5.20;81.06
76627;BME280;65519;53.230;10.390;2023-01-30T09:26:01;100248.34;;;5.18;81.98
76627;BME280;65519;53.230;10.390;2023-01-30T09:28:27;100280.38;;;5.26;81.69
76627;BME280;65519;53.230;10.390;2023-01-30T09:30:54;100270.69;;;5.30;80.43
76627;BME280;65519;53.230;10.390;2023-01-30T09:33:20;100275.84;;;5.32;81.26
76627;BME280;65519;53.230;10.390;2023-01-30T09:35:47;100263.56;;;5.41;80.07
76627;BME280;65519;53.230;10.390;2023-01-30T09:38:12;100285.88;;;5.48;79.62
76627;BME280;65519;53.230;10.390;2023-01-30T09:41:06;100270.97;;;5.45;79.88
76627;BME280;65519;53.230;10.390;2023-01-30T09:48:42;100255.41;;;5.36;79.18
76627;BME280;65519;53.230;10.390;2023-01-30T09:54:11;100255.88;;;5.33;79.59
76627;BME280;65519;53.230;10.390;2023-01-30T09:56:38;100262.84;;;5.45;79.54
76627;BME280;65519;53.230;10.390;2023-01-30T09:59:04;100261.78;;;5.46;78.06
76627;BME280;65519;53.230;10.390;2023-01-30T10:06:35;100238.69;;;5.72;76.92
76627;BME280;65519;53.230;10.390;2023-01-30T10:09:40;100251.00;;;6.02;77.34
76627;BME280;65519;53.230;10.390;2023-01-30T10:12:09;100204.94;;;5.97;76.01
76627;BME280;65519;53.230;10.390;2023-01-30T10:15:42;100247.09;;;5.93;75.77
76627;BME280;65519;53.230;10.390;2023-01-30T10:17:40;100241.59;;;6.04;75.63
76627;BME280;65519;53.230;10.390;2023-01-30T10:20:30;100226.91;;;6.00;74.55
76627;BME280;65519;53.230;10.390;2023-01-30T10:25:59;100212.66;;;6.05;75.37
76627;BME280;65519;53.230;10.390;2023-01-30T10:28:29;100250.72;;;6.20;74.55
76627;BME280;65519;53.230;10.390;2023-01-30T10:31:13;100220.44;;;6.23;75.31
76627;BME280;65519;53.230;10.390;2023-01-30T10:36:33;100230.69;;;6.21;75.26
76627;BME280;65519;53.230;10.390;2023-01-30T10:39:08;100206.84;;;6.18;75.53
76627;BME280;65519;53.230;10.390;2023-01-30T10:41:44;100194.06;;;6.35;74.79
76627;BME280;65519;53.230;10.390;2023-01-30T10:44:12;100208.09;;;6.32;73.69
76627;BME280;65519;53.230;10.390;2023-01-30T10:49:18;100196.94;;;6.29;73.00
76627;BME280;65519;53.230;10.390;2023-01-30T10:52:00;100183.91;;;6.47;72.02
76627;BME280;65519;53.230;10.390;2023-01-30T10:54:39;100183.47;;;6.55;71.63
76627;BME280;65519;53.230;10.390;2023-01-30T11:02:24;100162.25;;;6.74;71.79
76627;BME280;65519;53.230;10.390;2023-01-30T11:04:59;100163.19;;;6.58;70.50
76627;BME280;65519;53.230;10.390;2023-01-30T11:07:29;100165.63;;;6.59;71.34
76627;BME280;65519;53.230;10.390;2023-01-30T11:09:56;100162.59;;;6.83;71.51
76627;BME280;65519;53.230;10.390;2023-01-30T11:12:22;100161.81;;;6.60;71.49
76627;BME280;65519;53.230;10.390;2023-01-30T11:14:58;100172.75;;;6.71;71.10
76627;BME280;65519;53.230;10.390;2023-01-30T11:17:39;100147.22;;;6.62;71.11
76627;BME280;65519;53.230;10.390;2023-01-30T11:23:00;100168.34;;;6.59;71.49
76627;BME280;65519;53.230;10.390;2023-01-30T11:25:28;100170.91;;;6.49;71.71
76627;BME280;65519;53.230;10.390;2023-01-30T11:28:04;100159.94;;;6.34;73.33
76627;BME280;65519;53.230;10.390;2023-01-30T11:30:34;100169.59;;;6.25;74.21
76627;BME280;65519;53.230;10.390;2023-01-30T11:33:15;100151.47;;;6.04;75.39
76627;BME280;65519;53.230;10.390;2023-01-30T11:35:55;100122.56;;;6.09;77.77
76627;BME280;65519;53.230;10.390;2023-01-30T11:40:46;100156.69;;;6.10;77.71
76627;BME280;65519;53.230;10.390;2023-01-30T11:43:13;100154.94;;;5.99;78.05
76627;BME280;65519;53.230;10.390;2023-01-30T11:45:41;100160.59;;;5.98;78.06
76627;BME280;65519;53.230;10.390;2023-01-30T11:50:44;100181.25;;;5.32;82.30
76627;BME280;65519;53.230;10.390;2023-01-30T11:55:54;100217.72;;;4.67;83.80
76627;BME280;65519;53.230;10.390;2023-01-30T11:58:21;100246.31;;;4.52;84.54
76627;BME280;65519;53.230;10.390;2023-01-30T12:00:47;100264.34;;;4.63;85.32
76627;BME280;65519;53.230;10.390;2023-01-30T12:03:17;100245.72;;;4.50;84.48
76627;BME280;65519;53.230;10.390;2023-01-30T12:05:45;100249.88;;;4.40;85.44
76627;BME280;65519;53.230;10.390;2023-01-30T12:10:48;100223.84;;;4.34;84.79
76627;BME280;65519;53.230;10.390;2023-01-30T12:18:38;100210.88;;;4.76;84.85
76627;BME280;65519;53.230;10.390;2023-01-30T12:21:33;100203.56;;;5.05;82.99
76627;BME280;65519;53.230;10.390;2023-01-30T12:27:10;100201.09;;;5.37;82.59
76627;BME280;65519;53.230;10.390;2023-01-30T12:30:09;100207.63;;;5.58;81.25
76627;BME280;65519;53.230;10.390;2023-01-30T12:32:32;100186.84;;;5.25;82.07
76627;BME280;65519;53.230;10.390;2023-01-30T12:34:58;100195.59;;;5.32;82.42
76627;BME280;65519;53.230;10.390;2023-01-30T12:40:29;100190.28;;;5.37;80.83
76627;BME280;65519;53.230;10.390;2023-01-30T12:46:09;100207.72;;;5.13;82.94
76627;BME280;65519;53.230;10.390;2023-01-30T12:54:19;100215.66;;;5.03;83.91
76627;BME280;65519;53.230;10.390;2023-01-30T13:05:25;100253.75;;;5.18;86.05
76627;BME280;65519;53.230;10.390;2023-01-30T13:27:18;100245.13;;;5.88;81.89
76627;BME280;65519;53.230;10.390;2023-01-30T13:29:45;100264.31;;;6.03;81.06
76627;BME280;65519;53.230;10.390;2023-01-30T13:34:46;100254.91;;;6.11;78.78
76627;BME280;65519;53.230;10.390;2023-01-30T13:37:17;100255.94;;;6.05;79.46
76627;BME280;65519;53.230;10.390;2023-01-30T13:39:49;100244.97;;;5.78;79.94
76627;BME280;65519;53.230;10.390;2023-01-30T13:42:21;100249.88;;;5.64;80.58
76627;BME280;65519;53.230;10.390;2023-01-30T13:44:50;100262.34;;;5.65;81.45
76627;BME280;65519;53.230;10.390;2023-01-30T13:47:23;100269.16;;;5.68;79.81
76627;BME280;65519;53.230;10.390;2023-01-30T13:50:14;100270.69;;;5.64;80.10
76627;BME280;65519;53.230;10.390;2023-01-30T13:55:46;100282.75;;;5.56;80.27
76627;BME280;65519;53.230;10.390;2023-01-30T14:00:59;100278.00;;;5.63;78.48
76627;BME280;65519;53.230;10.390;2023-01-30T14:03:29;100299.06;;;5.61;79.14
76627;BME280;65519;53.230;10.390;2023-01-30T14:11:38;100282.56;;;5.63;80.66
76627;BME280;65519;53.230;10.390;2023-01-30T14:16:46;100284.97;;;5.59;80.27
76627;BME280;65519;53.230;10.390;2023-01-30T14:19:32;100282.09;;;5.66;77.75
76627;BME280;65519;53.230;10.390;2023-01-30T14:22:03;100270.22;;;5.67;77.51
76627;BME280;65519;53.230;10.390;2023-01-30T14:24:29;100279.63;;;5.64;78.38
76627;BME280;65519;53.230;10.390;2023-01-30T14:34:40;100342.22;;;5.56;81.95
76627;BME280;65519;53.230;10.390;2023-01-30T14:39:54;100367.56;;;5.50;81.36
76627;BME280;65519;53.230;10.390;2023-01-30T14:42:25;100360.50;;;5.49;82.58
76627;BME280;65519;53.230;10.390;2023-01-30T14:45:14;100378.38;;;5.50;82.36
76627;BME280;65519;53.230;10.390;2023-01-30T14:47:40;100379.19;;;5.50;82.06
76627;BME280;65519;53.230;10.390;2023-01-30T14:50:20;100377.31;;;5.51;81.73
76627;BME280;65519;53.230;10.390;2023-01-30T14:52:47;100385.84;;;5.60;81.15
76627;BME280;65519;53.230;10.390;2023-01-30T14:55:21;100386.16;;;5.63;81.92
76627;BME280;65519;53.230;10.390;2023-01-30T14:57:56;100386.66;;;5.60;82.66
76627;BME280;65519;53.230;10.390;2023-01-30T15:00:26;100404.59;;;5.66;81.22
76627;BME280;65519;53.230;10.390;2023-01-30T15:03:06;100412.47;;;5.68;80.09
76627;BME280;65519;53.230;10.390;2023-01-30T15:05:37;100410.34;;;5.70;81.09
76627;BME280;65519;53.230;10.390;2023-01-30T15:13:46;100437.09;;;5.83;78.26
76627;BME280;65519;53.230;10.390;2023-01-30T15:28:18;100471.44;;;5.82;77.38
76627;BME280;65519;53.230;10.390;2023-01-30T15:33:22;100471.44;;;5.82;75.25
76627;BME280;65519;53.230;10.390;2023-01-30T15:35:48;100492.25;;;5.82;75.96
76627;BME280;65519;53.230;10.390;2023-01-30T15:38:33;100496.25;;;5.79;75.28
76627;BME280;65519;53.230;10.390;2023-01-30T15:41:03;100477.66;;;5.83;75.82
76627;BME280;65519;53.230;10.390;2023-01-30T15:43:44;100500.38;;;5.82;75.64
76627;BME280;65519;53.230;10.390;2023-01-30T15:51:39;100523.88;;;5.81;74.84
76627;BME280;65519;53.230;10.390;2023-01-30T15:54:09;100523.47;;;5.73;74.43
76627;BME280;65519;53.230;10.390;2023-01-30T15:56:35;100530.16;;;5.70;74.90
76627;BME280;65519;53.230;10.390;2023-01-30T15:59:03;100552.94;;;5.74;74.28